الصفحة الرئيسية
METAR-TAF:

METAR-TAF

مطار :

Show Low, أريزونا, الولايات المتحدة

دائرة عرض: 34-16N, خط طول: 110-00W, ارتفاع: 1954 متر

مراقبة الطقس الحالي

تاريخ ووقت الإصدار 19 دقيقة قبل الساعة 07:15UTC
ريح 14 عقدة من الجنوب تتزايد حتى 20 عقدة
درجة الحرارة 6°درجة مئوية
الرطوبة 87%
ضغط 1019 hPa
الرؤية: 16.1 كم

METAR: KSOW 210715Z AUTO 19014G20KT 10SM 06/04 A3008 RMK AO2

زمن: 00:34 (07:34 UTC)


TAF: مفقودة

أرصاد الطقس والتوقعات من أكثر من 4000 مطار (تقارير الطقس للمطار METAR والتنبؤ بالطقس بالمطارTAF).

المحطات المتاحة هي النقط الصفراء والحمراء على الخريطة.

حرك المؤشر فوق النقطة لمعرفة اسم المحطة.

ثم انقر لمعرفة أرصاد وتوقعات الطقس.

لتغيير الخارطة: اضغط على الأزرار الخضراء مع رمز الصليب الأسود للتكبير. على الزر الأخضر مع شرطة للتصغير، أو على الأسهم الخضراء للخرائط المجاورة.


METAR-TAF: